sensor_id;sensor_type;location;lat;lon;timestamp;P1;durP1;ratioP1;P2;durP2;ratioP2
58412;SDS011;44209;52.952;6.790;2023-02-28T00:01:12;9.97;;;6.03;;
58412;SDS011;44209;52.952;6.790;2023-02-28T00:03:38;9.60;;;5.73;;
58412;SDS011;44209;52.952;6.790;2023-02-28T00:06:04;13.83;;;6.40;;
58412;SDS011;44209;52.952;6.790;2023-02-28T00:08:31;12.83;;;6.50;;
58412;SDS011;44209;52.952;6.790;2023-02-28T00:11:00;11.10;;;6.50;;
58412;SDS011;44209;52.952;6.790;2023-02-28T00:13:30;17.20;;;6.60;;
58412;SDS011;44209;52.952;6.790;2023-02-28T00:16:03;9.80;;;6.40;;
58412;SDS011;44209;52.952;6.790;2023-02-28T00:18:31;13.60;;;6.80;;
58412;SDS011;44209;52.952;6.790;2023-02-28T00:20:57;9.93;;;5.77;;
58412;SDS011;44209;52.952;6.790;2023-02-28T00:23:24;12.27;;;5.80;;
58412;SDS011;44209;52.952;6.790;2023-02-28T00:25:50;7.60;;;5.70;;
58412;SDS011;44209;52.952;6.790;2023-02-28T00:28:16;12.07;;;5.87;;
58412;SDS011;44209;52.952;6.790;2023-02-28T00:30:42;9.20;;;5.00;;
58412;SDS011;44209;52.952;6.790;2023-02-28T00:33:08;6.63;;;4.60;;
58412;SDS011;44209;52.952;6.790;2023-02-28T00:35:34;7.27;;;4.47;;
58412;SDS011;44209;52.952;6.790;2023-02-28T00:38:00;6.77;;;4.33;;
58412;SDS011;44209;52.952;6.790;2023-02-28T00:40:26;7.30;;;4.73;;
58412;SDS011;44209;52.952;6.790;2023-02-28T00:42:51;10.73;;;5.30;;
58412;SDS011;44209;52.952;6.790;2023-02-28T00:45:17;7.57;;;4.53;;
58412;SDS011;44209;52.952;6.790;2023-02-28T00:47:43;6.23;;;4.67;;
58412;SDS011;44209;52.952;6.790;2023-02-28T00:50:09;10.33;;;5.03;;
58412;SDS011;44209;52.952;6.790;2023-02-28T00:52:35;8.13;;;4.70;;
58412;SDS011;44209;52.952;6.790;2023-02-28T00:55:00;9.67;;;4.83;;
58412;SDS011;44209;52.952;6.790;2023-02-28T00:57:26;8.67;;;4.23;;
58412;SDS011;44209;52.952;6.790;2023-02-28T00:59:52;6.97;;;4.70;;
58412;SDS011;44209;52.952;6.790;2023-02-28T01:02:19;9.57;;;5.10;;
58412;SDS011;44209;52.952;6.790;2023-02-28T01:04:46;10.17;;;5.30;;
58412;SDS011;44209;52.952;6.790;2023-02-28T01:07:12;10.47;;;5.20;;
58412;SDS011;44209;52.952;6.790;2023-02-28T01:09:38;7.70;;;5.23;;
58412;SDS011;44209;52.952;6.790;2023-02-28T01:12:04;9.97;;;5.20;;
58412;SDS011;44209;52.952;6.790;2023-02-28T01:14:30;9.97;;;6.10;;
58412;SDS011;44209;52.952;6.790;2023-02-28T01:16:55;10.03;;;6.37;;
58412;SDS011;44209;52.952;6.790;2023-02-28T01:19:21;10.40;;;5.30;;
58412;SDS011;44209;52.952;6.790;2023-02-28T01:21:47;8.50;;;5.60;;
58412;SDS011;44209;52.952;6.790;2023-02-28T01:24:12;9.17;;;5.30;;
58412;SDS011;44209;52.952;6.790;2023-02-28T01:26:38;11.37;;;5.30;;
58412;SDS011;44209;52.952;6.790;2023-02-28T01:29:04;9.17;;;4.97;;
58412;SDS011;44209;52.952;6.790;2023-02-28T01:31:29;8.80;;;4.60;;
58412;SDS011;44209;52.952;6.790;2023-02-28T01:33:55;8.70;;;4.67;;
58412;SDS011;44209;52.952;6.790;2023-02-28T01:36:22;5.97;;;4.50;;
58412;SDS011;44209;52.952;6.790;2023-02-28T01:38:49;9.27;;;4.70;;
58412;SDS011;44209;52.952;6.790;2023-02-28T01:41:17;7.53;;;5.10;;
58412;SDS011;44209;52.952;6.790;2023-02-28T01:46:11;9.40;;;4.70;;
58412;SDS011;44209;52.952;6.790;2023-02-28T01:48:42;6.73;;;5.33;;
58412;SDS011;44209;52.952;6.790;2023-02-28T01:51:15;7.40;;;4.73;;
58412;SDS011;44209;52.952;6.790;2023-02-28T01:53:49;8.67;;;5.70;;
58412;SDS011;44209;52.952;6.790;2023-02-28T01:56:19;9.20;;;4.87;;
58412;SDS011;44209;52.952;6.790;2023-02-28T01:58:49;9.20;;;5.40;;
58412;SDS011;44209;52.952;6.790;2023-02-28T02:01:16;8.27;;;5.63;;
58412;SDS011;44209;52.952;6.790;2023-02-28T02:03:47;9.30;;;5.20;;
58412;SDS011;44209;52.952;6.790;2023-02-28T02:06:20;8.27;;;5.07;;
58412;SDS011;44209;52.952;6.790;2023-02-28T02:08:47;9.13;;;5.47;;
58412;SDS011;44209;52.952;6.790;2023-02-28T02:11:13;9.43;;;5.60;;
58412;SDS011;44209;52.952;6.790;2023-02-28T02:16:54;9.03;;;5.50;;
58412;SDS011;44209;52.952;6.790;2023-02-28T02:27:56;9.23;;;5.80;;
58412;SDS011;44209;52.952;6.790;2023-02-28T02:30:51;8.13;;;5.80;;
58412;SDS011;44209;52.952;6.790;2023-02-28T02:33:46;8.07;;;5.43;;
58412;SDS011;44209;52.952;6.790;2023-02-28T02:36:38;8.47;;;5.60;;
58412;SDS011;44209;52.952;6.790;2023-02-28T02:44:22;8.70;;;6.50;;
58412;SDS011;44209;52.952;6.790;2023-02-28T02:46:58;9.10;;;6.00;;
58412;SDS011;44209;52.952;6.790;2023-02-28T02:49:31;8.40;;;5.70;;
58412;SDS011;44209;52.952;6.790;2023-02-28T02:52:00;7.77;;;5.93;;
58412;SDS011;44209;52.952;6.790;2023-02-28T02:54:33;8.73;;;6.13;;
58412;SDS011;44209;52.952;6.790;2023-02-28T02:57:03;8.03;;;6.03;;
58412;SDS011;44209;52.952;6.790;2023-02-28T02:59:33;9.30;;;5.87;;
58412;SDS011;44209;52.952;6.790;2023-02-28T03:02:04;9.10;;;6.33;;
58412;SDS011;44209;52.952;6.790;2023-02-28T03:04:37;9.43;;;5.90;;
58412;SDS011;44209;52.952;6.790;2023-02-28T03:07:06;9.53;;;6.40;;
58412;SDS011;44209;52.952;6.790;2023-02-28T03:09:33;10.20;;;6.53;;
58412;SDS011;44209;52.952;6.790;2023-02-28T03:12:00;9.27;;;6.53;;
58412;SDS011;44209;52.952;6.790;2023-02-28T03:20:19;7.77;;;6.03;;
58412;SDS011;44209;52.952;6.790;2023-02-28T03:22:57;10.00;;;6.70;;
58412;SDS011;44209;52.952;6.790;2023-02-28T03:25:59;9.87;;;6.87;;
58412;SDS011;44209;52.952;6.790;2023-02-28T03:31:17;12.77;;;6.47;;
58412;SDS011;44209;52.952;6.790;2023-02-28T03:33:51;9.10;;;6.20;;
58412;SDS011;44209;52.952;6.790;2023-02-28T03:36:41;10.10;;;6.82;;
58412;SDS011;44209;52.952;6.790;2023-02-28T03:39:14;11.67;;;7.00;;
58412;SDS011;44209;52.952;6.790;2023-02-28T03:44:59;12.63;;;7.40;;
58412;SDS011;44209;52.952;6.790;2023-02-28T03:52:53;12.83;;;7.77;;
58412;SDS011;44209;52.952;6.790;2023-02-28T03:55:28;12.77;;;7.93;;
58412;SDS011;44209;52.952;6.790;2023-02-28T04:00:31;11.02;;;7.60;;
58412;SDS011;44209;52.952;6.790;2023-02-28T04:03:00;10.43;;;7.10;;
58412;SDS011;44209;52.952;6.790;2023-02-28T04:05:26;12.03;;;7.70;;
58412;SDS011;44209;52.952;6.790;2023-02-28T04:07:53;8.97;;;6.93;;
58412;SDS011;44209;52.952;6.790;2023-02-28T04:10:19;12.23;;;8.33;;
58412;SDS011;44209;52.952;6.790;2023-02-28T04:12:45;12.30;;;8.47;;
58412;SDS011;44209;52.952;6.790;2023-02-28T04:15:11;13.00;;;7.97;;
58412;SDS011;44209;52.952;6.790;2023-02-28T04:17:36;13.50;;;8.47;;
58412;SDS011;44209;52.952;6.790;2023-02-28T04:20:03;11.23;;;8.40;;
58412;SDS011;44209;52.952;6.790;2023-02-28T04:22:34;14.18;;;8.82;;
58412;SDS011;44209;52.952;6.790;2023-02-28T04:25:00;14.50;;;8.90;;
58412;SDS011;44209;52.952;6.790;2023-02-28T04:27:25;12.50;;;9.20;;
58412;SDS011;44209;52.952;6.790;2023-02-28T04:29:51;16.40;;;9.50;;
58412;SDS011;44209;52.952;6.790;2023-02-28T04:32:17;16.27;;;9.50;;
58412;SDS011;44209;52.952;6.790;2023-02-28T04:34:42;15.23;;;9.87;;
58412;SDS011;44209;52.952;6.790;2023-02-28T04:37:08;14.17;;;9.40;;
58412;SDS011;44209;52.952;6.790;2023-02-28T04:39:35;15.50;;;9.77;;
58412;SDS011;44209;52.952;6.790;2023-02-28T04:42:01;16.00;;;9.77;;
58412;SDS011;44209;52.952;6.790;2023-02-28T04:44:27;14.47;;;9.70;;
58412;SDS011;44209;52.952;6.790;2023-02-28T04:46:53;13.57;;;9.23;;
58412;SDS011;44209;52.952;6.790;2023-02-28T04:49:18;17.40;;;9.73;;
58412;SDS011;44209;52.952;6.790;2023-02-28T04:51:44;14.50;;;9.47;;
58412;SDS011;44209;52.952;6.790;2023-02-28T04:54:10;13.10;;;10.20;;
58412;SDS011;44209;52.952;6.790;2023-02-28T04:56:36;15.07;;;9.70;;
58412;SDS011;44209;52.952;6.790;2023-02-28T04:59:01;15.47;;;9.07;;
58412;SDS011;44209;52.952;6.790;2023-02-28T05:01:28;14.90;;;10.10;;
58412;SDS011;44209;52.952;6.790;2023-02-28T05:03:56;18.40;;;10.20;;
58412;SDS011;44209;52.952;6.790;2023-02-28T05:06:24;17.00;;;9.93;;
58412;SDS011;44209;52.952;6.790;2023-02-28T05:08:51;17.63;;;10.10;;
58412;SDS011;44209;52.952;6.790;2023-02-28T05:11:19;18.17;;;10.27;;
58412;SDS011;44209;52.952;6.790;2023-02-28T05:13:51;18.60;;;10.43;;
58412;SDS011;44209;52.952;6.790;2023-02-28T05:16:17;16.20;;;10.10;;
58412;SDS011;44209;52.952;6.790;2023-02-28T05:18:43;13.63;;;9.40;;
58412;SDS011;44209;52.952;6.790;2023-02-28T05:23:49;16.97;;;10.53;;
58412;SDS011;44209;52.952;6.790;2023-02-28T05:26:15;15.67;;;10.27;;
58412;SDS011;44209;52.952;6.790;2023-02-28T05:28:41;16.10;;;10.50;;
58412;SDS011;44209;52.952;6.790;2023-02-28T05:31:07;14.67;;;9.77;;
58412;SDS011;44209;52.952;6.790;2023-02-28T05:33:35;17.43;;;11.33;;
58412;SDS011;44209;52.952;6.790;2023-02-28T05:36:01;15.10;;;10.40;;
58412;SDS011;44209;52.952;6.790;2023-02-28T05:38:27;17.50;;;11.53;;
58412;SDS011;44209;52.952;6.790;2023-02-28T05:40:53;16.67;;;10.63;;
58412;SDS011;44209;52.952;6.790;2023-02-28T05:43:19;17.23;;;10.47;;
58412;SDS011;44209;52.952;6.790;2023-02-28T05:45:44;17.33;;;11.07;;
58412;SDS011;44209;52.952;6.790;2023-02-28T05:48:10;18.57;;;11.47;;
58412;SDS011;44209;52.952;6.790;2023-02-28T05:50:36;19.10;;;11.37;;
58412;SDS011;44209;52.952;6.790;2023-02-28T05:53:03;17.50;;;11.47;;
58412;SDS011;44209;52.952;6.790;2023-02-28T05:55:29;17.57;;;11.93;;
58412;SDS011;44209;52.952;6.790;2023-02-28T05:57:54;17.67;;;10.50;;
58412;SDS011;44209;52.952;6.790;2023-02-28T06:00:21;17.20;;;11.07;;
58412;SDS011;44209;52.952;6.790;2023-02-28T06:02:47;19.33;;;11.47;;
58412;SDS011;44209;52.952;6.790;2023-02-28T06:05:13;19.33;;;12.20;;
58412;SDS011;44209;52.952;6.790;2023-02-28T06:07:40;19.43;;;11.97;;
58412;SDS011;44209;52.952;6.790;2023-02-28T06:10:06;19.60;;;11.73;;
58412;SDS011;44209;52.952;6.790;2023-02-28T06:12:33;18.93;;;12.03;;
58412;SDS011;44209;52.952;6.790;2023-02-28T06:14:58;19.53;;;12.67;;
58412;SDS011;44209;52.952;6.790;2023-02-28T06:17:24;21.67;;;12.13;;
58412;SDS011;44209;52.952;6.790;2023-02-28T06:19:50;21.63;;;13.70;;
58412;SDS011;44209;52.952;6.790;2023-02-28T06:22:15;20.00;;;12.03;;
58412;SDS011;44209;52.952;6.790;2023-02-28T06:24:41;17.60;;;12.10;;
58412;SDS011;44209;52.952;6.790;2023-02-28T06:27:07;17.77;;;11.97;;
58412;SDS011;44209;52.952;6.790;2023-02-28T06:29:33;21.13;;;13.23;;
58412;SDS011;44209;52.952;6.790;2023-02-28T06:32:00;15.50;;;11.53;;
58412;SDS011;44209;52.952;6.790;2023-02-28T06:34:26;17.70;;;11.53;;
58412;SDS011;44209;52.952;6.790;2023-02-28T06:36:52;22.43;;;12.70;;
58412;SDS011;44209;52.952;6.790;2023-02-28T06:39:17;17.40;;;11.57;;
58412;SDS011;44209;52.952;6.790;2023-02-28T06:41:43;17.00;;;12.10;;
58412;SDS011;44209;52.952;6.790;2023-02-28T06:44:15;18.33;;;11.87;;
58412;SDS011;44209;52.952;6.790;2023-02-28T06:46:43;19.98;;;13.40;;
58412;SDS011;44209;52.952;6.790;2023-02-28T06:49:10;20.27;;;12.87;;
58412;SDS011;44209;52.952;6.790;2023-02-28T06:51:38;20.13;;;13.27;;
58412;SDS011;44209;52.952;6.790;2023-02-28T06:54:05;21.40;;;13.03;;
58412;SDS011;44209;52.952;6.790;2023-02-28T06:56:33;20.43;;;12.57;;
58412;SDS011;44209;52.952;6.790;2023-02-28T06:58:59;22.23;;;12.30;;
58412;SDS011;44209;52.952;6.790;2023-02-28T07:01:25;20.97;;;12.87;;
58412;SDS011;44209;52.952;6.790;2023-02-28T07:03:53;19.20;;;13.07;;
58412;SDS011;44209;52.952;6.790;2023-02-28T07:06:19;20.53;;;12.63;;
58412;SDS011;44209;52.952;6.790;2023-02-28T07:08:47;20.37;;;13.03;;
58412;SDS011;44209;52.952;6.790;2023-02-28T07:11:14;19.97;;;11.87;;
58412;SDS011;44209;52.952;6.790;2023-02-28T07:13:40;20.50;;;13.00;;
58412;SDS011;44209;52.952;6.790;2023-02-28T07:16:06;20.80;;;13.33;;
58412;SDS011;44209;52.952;6.790;2023-02-28T07:18:34;22.00;;;12.90;;
58412;SDS011;44209;52.952;6.790;2023-02-28T07:21:04;19.67;;;12.50;;
58412;SDS011;44209;52.952;6.790;2023-02-28T07:23:31;23.25;;;12.68;;
58412;SDS011;44209;52.952;6.790;2023-02-28T07:25:57;22.13;;;13.10;;
58412;SDS011;44209;52.952;6.790;2023-02-28T07:28:23;22.93;;;13.40;;
58412;SDS011;44209;52.952;6.790;2023-02-28T07:30:49;22.43;;;13.33;;
58412;SDS011;44209;52.952;6.790;2023-02-28T07:33:15;20.20;;;13.00;;
58412;SDS011;44209;52.952;6.790;2023-02-28T07:35:41;21.63;;;13.53;;
58412;SDS011;44209;52.952;6.790;2023-02-28T07:38:07;21.33;;;13.37;;
58412;SDS011;44209;52.952;6.790;2023-02-28T07:40:33;21.80;;;13.33;;
58412;SDS011;44209;52.952;6.790;2023-02-28T07:43:00;19.60;;;13.43;;
58412;SDS011;44209;52.952;6.790;2023-02-28T07:45:26;18.93;;;12.33;;
58412;SDS011;44209;52.952;6.790;2023-02-28T07:47:53;21.57;;;13.70;;
58412;SDS011;44209;52.952;6.790;2023-02-28T07:50:19;23.40;;;12.53;;
58412;SDS011;44209;52.952;6.790;2023-02-28T07:52:45;20.33;;;12.90;;
58412;SDS011;44209;52.952;6.790;2023-02-28T07:55:11;20.87;;;13.57;;
58412;SDS011;44209;52.952;6.790;2023-02-28T07:57:38;21.23;;;13.23;;
58412;SDS011;44209;52.952;6.790;2023-02-28T08:00:06;19.13;;;12.87;;
58412;SDS011;44209;52.952;6.790;2023-02-28T08:02:37;19.87;;;13.03;;
58412;SDS011;44209;52.952;6.790;2023-02-28T08:05:04;21.53;;;13.00;;
58412;SDS011;44209;52.952;6.790;2023-02-28T08:07:30;20.03;;;14.30;;
58412;SDS011;44209;52.952;6.790;2023-02-28T08:09:56;20.60;;;13.67;;
58412;SDS011;44209;52.952;6.790;2023-02-28T08:12:21;21.47;;;13.27;;
58412;SDS011;44209;52.952;6.790;2023-02-28T08:14:47;20.33;;;12.77;;
58412;SDS011;44209;52.952;6.790;2023-02-28T08:17:13;20.20;;;12.67;;
58412;SDS011;44209;52.952;6.790;2023-02-28T08:19:38;22.43;;;13.77;;
58412;SDS011;44209;52.952;6.790;2023-02-28T08:22:04;20.60;;;13.40;;
58412;SDS011;44209;52.952;6.790;2023-02-28T08:24:30;22.00;;;13.10;;
58412;SDS011;44209;52.952;6.790;2023-02-28T08:26:55;21.97;;;13.83;;
58412;SDS011;44209;52.952;6.790;2023-02-28T08:29:21;18.37;;;13.10;;
58412;SDS011;44209;52.952;6.790;2023-02-28T08:31:48;19.77;;;13.57;;
58412;SDS011;44209;52.952;6.790;2023-02-28T08:34:14;19.10;;;13.87;;
58412;SDS011;44209;52.952;6.790;2023-02-28T08:36:41;21.83;;;13.73;;
58412;SDS011;44209;52.952;6.790;2023-02-28T08:39:08;24.90;;;15.10;;
58412;SDS011;44209;52.952;6.790;2023-02-28T08:41:34;20.67;;;13.47;;
58412;SDS011;44209;52.952;6.790;2023-02-28T08:44:00;23.17;;;16.67;;
58412;SDS011;44209;52.952;6.790;2023-02-28T08:46:26;21.30;;;13.50;;
58412;SDS011;44209;52.952;6.790;2023-02-28T08:48:56;19.30;;;13.43;;
58412;SDS011;44209;52.952;6.790;2023-02-28T08:51:25;18.00;;;13.47;;
58412;SDS011;44209;52.952;6.790;2023-02-28T08:53:55;19.70;;;12.87;;
58412;SDS011;44209;52.952;6.790;2023-02-28T08:56:24;18.03;;;12.83;;
58412;SDS011;44209;52.952;6.790;2023-02-28T08:58:50;21.47;;;13.33;;
58412;SDS011;44209;52.952;6.790;2023-02-28T09:01:17;17.03;;;12.00;;
58412;SDS011;44209;52.952;6.790;2023-02-28T09:03:45;17.63;;;12.83;;
58412;SDS011;44209;52.952;6.790;2023-02-28T09:06:12;15.13;;;11.37;;
58412;SDS011;44209;52.952;6.790;2023-02-28T09:08:38;13.77;;;10.17;;
58412;SDS011;44209;52.952;6.790;2023-02-28T09:11:05;17.00;;;11.93;;
58412;SDS011;44209;52.952;6.790;2023-02-28T09:13:31;18.47;;;12.80;;
58412;SDS011;44209;52.952;6.790;2023-02-28T09:15:58;17.13;;;12.00;;
58412;SDS011;44209;52.952;6.790;2023-02-28T09:18:25;16.27;;;11.40;;
58412;SDS011;44209;52.952;6.790;2023-02-28T09:20:51;18.33;;;12.47;;
58412;SDS011;44209;52.952;6.790;2023-02-28T09:23:17;14.20;;;11.63;;
58412;SDS011;44209;52.952;6.790;2023-02-28T09:25:50;16.17;;;12.00;;
58412;SDS011;44209;52.952;6.790;2023-02-28T09:28:17;15.83;;;11.10;;
58412;SDS011;44209;52.952;6.790;2023-02-28T09:30:44;15.07;;;12.13;;
58412;SDS011;44209;52.952;6.790;2023-02-28T09:33:12;16.63;;;11.23;;
58412;SDS011;44209;52.952;6.790;2023-02-28T09:35:39;15.40;;;11.73;;
58412;SDS011;44209;52.952;6.790;2023-02-28T09:38:05;17.30;;;12.00;;
58412;SDS011;44209;52.952;6.790;2023-02-28T09:40:34;14.50;;;11.20;;
58412;SDS011;44209;52.952;6.790;2023-02-28T09:43:02;15.33;;;11.67;;
58412;SDS011;44209;52.952;6.790;2023-02-28T09:45:30;15.60;;;11.37;;
58412;SDS011;44209;52.952;6.790;2023-02-28T09:47:59;17.97;;;11.97;;
58412;SDS011;44209;52.952;6.790;2023-02-28T09:50:36;13.93;;;10.77;;
58412;SDS011;44209;52.952;6.790;2023-02-28T09:53:13;14.75;;;11.02;;
58412;SDS011;44209;52.952;6.790;2023-02-28T09:55:58;15.97;;;10.73;;
58412;SDS011;44209;52.952;6.790;2023-02-28T10:04:08;13.40;;;10.57;;
58412;SDS011;44209;52.952;6.790;2023-02-28T10:06:40;15.70;;;11.27;;
58412;SDS011;44209;52.952;6.790;2023-02-28T10:09:14;15.33;;;10.80;;
58412;SDS011;44209;52.952;6.790;2023-02-28T10:11:42;15.70;;;10.50;;
58412;SDS011;44209;52.952;6.790;2023-02-28T10:14:12;12.00;;;9.80;;
58412;SDS011;44209;52.952;6.790;2023-02-28T10:16:51;13.43;;;9.33;;
58412;SDS011;44209;52.952;6.790;2023-02-28T10:19:30;11.77;;;8.77;;
58412;SDS011;44209;52.952;6.790;2023-02-28T10:22:08;12.93;;;9.10;;
58412;SDS011;44209;52.952;6.790;2023-02-28T10:24:42;14.30;;;10.30;;
58412;SDS011;44209;52.952;6.790;2023-02-28T10:29:40;11.80;;;8.70;;
58412;SDS011;44209;52.952;6.790;2023-02-28T10:32:08;12.13;;;8.30;;
58412;SDS011;44209;52.952;6.790;2023-02-28T10:34:38;10.83;;;8.30;;
58412;SDS011;44209;52.952;6.790;2023-02-28T10:37:04;12.20;;;8.03;;
58412;SDS011;44209;52.952;6.790;2023-02-28T10:42:04;10.32;;;7.20;;
58412;SDS011;44209;52.952;6.790;2023-02-28T10:44:30;12.03;;;7.50;;
58412;SDS011;44209;52.952;6.790;2023-02-28T10:46:56;10.60;;;7.57;;
58412;SDS011;44209;52.952;6.790;2023-02-28T10:49:23;10.93;;;7.77;;
58412;SDS011;44209;52.952;6.790;2023-02-28T10:51:58;10.80;;;7.00;;
58412;SDS011;44209;52.952;6.790;2023-02-28T10:54:32;7.65;;;5.25;;
58412;SDS011;44209;52.952;6.790;2023-02-28T10:57:07;8.20;;;5.40;;
58412;SDS011;44209;52.952;6.790;2023-02-28T10:59:39;8.20;;;4.80;;
58412;SDS011;44209;52.952;6.790;2023-02-28T11:02:28;6.10;;;5.13;;
58412;SDS011;44209;52.952;6.790;2023-02-28T11:04:55;7.93;;;4.93;;
58412;SDS011;44209;52.952;6.790;2023-02-28T11:07:21;5.63;;;4.47;;
58412;SDS011;44209;52.952;6.790;2023-02-28T11:09:51;4.77;;;4.10;;
58412;SDS011;44209;52.952;6.790;2023-02-28T11:14:52;4.87;;;3.70;;
58412;SDS011;44209;52.952;6.790;2023-02-28T11:17:25;7.60;;;6.80;;
58412;SDS011;44209;52.952;6.790;2023-02-28T11:19:57;5.30;;;4.17;;
58412;SDS011;44209;52.952;6.790;2023-02-28T11:22:38;5.40;;;4.20;;
58412;SDS011;44209;52.952;6.790;2023-02-28T11:25:54;6.30;;;4.67;;
58412;SDS011;44209;52.952;6.790;2023-02-28T11:27:58;5.70;;;4.70;;
58412;SDS011;44209;52.952;6.790;2023-02-28T11:35:49;5.50;;;4.80;;
58412;SDS011;44209;52.952;6.790;2023-02-28T11:38:16;7.67;;;6.00;;
58412;SDS011;44209;52.952;6.790;2023-02-28T11:43:46;7.17;;;6.13;;
58412;SDS011;44209;52.952;6.790;2023-02-28T11:49:05;7.00;;;6.00;;
58412;SDS011;44209;52.952;6.790;2023-02-28T11:51:50;7.87;;;6.97;;
58412;SDS011;44209;52.952;6.790;2023-02-28T11:54:23;7.37;;;6.57;;
58412;SDS011;44209;52.952;6.790;2023-02-28T11:57:00;9.40;;;6.83;;
58412;SDS011;44209;52.952;6.790;2023-02-28T12:28:25;10.67;;;8.33;;
58412;SDS011;44209;52.952;6.790;2023-02-28T12:30:58;7.90;;;7.10;;
58412;SDS011;44209;52.952;6.790;2023-02-28T12:35:59;9.33;;;7.40;;
58412;SDS011;44209;52.952;6.790;2023-02-28T12:38:41;8.48;;;7.57;;
58412;SDS011;44209;52.952;6.790;2023-02-28T12:41:15;12.00;;;9.40;;
58412;SDS011;44209;52.952;6.790;2023-02-28T12:43:44;18.83;;;14.53;;
58412;SDS011;44209;52.952;6.790;2023-02-28T12:46:21;12.00;;;10.73;;
58412;SDS011;44209;52.952;6.790;2023-02-28T12:48:55;9.10;;;7.00;;
58412;SDS011;44209;52.952;6.790;2023-02-28T12:51:23;9.60;;;8.00;;
58412;SDS011;44209;52.952;6.790;2023-02-28T13:10:07;6.07;;;5.40;;
58412;SDS011;44209;52.952;6.790;2023-02-28T13:12:34;6.50;;;5.87;;
58412;SDS011;44209;52.952;6.790;2023-02-28T13:15:08;5.93;;;4.67;;
58412;SDS011;44209;52.952;6.790;2023-02-28T13:17:50;5.93;;;4.97;;
58412;SDS011;44209;52.952;6.790;2023-02-28T13:20:21;8.20;;;5.33;;
58412;SDS011;44209;52.952;6.790;2023-02-28T13:22:51;5.83;;;5.23;;
58412;SDS011;44209;52.952;6.790;2023-02-28T13:25:53;6.30;;;5.70;;
58412;SDS011;44209;52.952;6.790;2023-02-28T13:28:55;6.53;;;4.97;;
58412;SDS011;44209;52.952;6.790;2023-02-28T13:31:15;5.67;;;4.80;;
58412;SDS011;44209;52.952;6.790;2023-02-28T13:38:57;21.63;;;10.77;;
58412;SDS011;44209;52.952;6.790;2023-02-28T13:41:43;8.93;;;6.50;;
58412;SDS011;44209;52.952;6.790;2023-02-28T13:44:13;7.03;;;6.13;;
58412;SDS011;44209;52.952;6.790;2023-02-28T13:49:32;6.60;;;5.90;;
58412;SDS011;44209;52.952;6.790;2023-02-28T13:59:53;7.33;;;6.00;;
58412;SDS011;44209;52.952;6.790;2023-02-28T14:02:49;7.43;;;6.30;;
58412;SDS011;44209;52.952;6.790;2023-02-28T14:05:39;7.10;;;6.40;;
58412;SDS011;44209;52.952;6.790;2023-02-28T14:08:08;7.63;;;6.20;;
58412;SDS011;44209;52.952;6.790;2023-02-28T14:10:46;9.33;;;6.20;;
58412;SDS011;44209;52.952;6.790;2023-02-28T14:16:13;8.97;;;6.10;;
58412;SDS011;44209;52.952;6.790;2023-02-28T14:19:05;6.33;;;5.73;;
58412;SDS011;44209;52.952;6.790;2023-02-28T14:21:38;6.93;;;5.80;;
58412;SDS011;44209;52.952;6.790;2023-02-28T14:33:14;6.30;;;5.30;;
58412;SDS011;44209;52.952;6.790;2023-02-28T14:36:07;6.67;;;5.23;;
58412;SDS011;44209;52.952;6.790;2023-02-28T14:38:48;7.57;;;5.10;;
58412;SDS011;44209;52.952;6.790;2023-02-28T14:43:55;5.63;;;4.97;;
58412;SDS011;44209;52.952;6.790;2023-02-28T14:46:23;7.57;;;5.10;;
58412;SDS011;44209;52.952;6.790;2023-02-28T14:48:53;6.33;;;5.03;;
58412;SDS011;44209;52.952;6.790;2023-02-28T14:51:23;6.67;;;4.80;;
58412;SDS011;44209;52.952;6.790;2023-02-28T14:53:50;5.80;;;5.20;;
58412;SDS011;44209;52.952;6.790;2023-02-28T14:56:26;8.93;;;5.67;;
58412;SDS011;44209;52.952;6.790;2023-02-28T14:59:00;6.33;;;5.73;;
58412;SDS011;44209;52.952;6.790;2023-02-28T15:01:26;6.60;;;5.73;;
58412;SDS011;44209;52.952;6.790;2023-02-28T15:03:59;9.50;;;6.50;;
58412;SDS011;44209;52.952;6.790;2023-02-28T15:06:28;7.13;;;5.60;;
58412;SDS011;44209;52.952;6.790;2023-02-28T15:09:13;7.53;;;5.63;;
58412;SDS011;44209;52.952;6.790;2023-02-28T15:11:40;6.10;;;5.40;;
58412;SDS011;44209;52.952;6.790;2023-02-28T15:14:13;6.00;;;4.77;;
58412;SDS011;44209;52.952;6.790;2023-02-28T15:16:57;7.57;;;5.07;;
58412;SDS011;44209;52.952;6.790;2023-02-28T15:19:32;6.57;;;5.00;;
58412;SDS011;44209;52.952;6.790;2023-02-28T15:24:31;7.00;;;5.33;;
58412;SDS011;44209;52.952;6.790;2023-02-28T15:27:07;6.60;;;5.33;;
58412;SDS011;44209;52.952;6.790;2023-02-28T15:29:43;9.07;;;5.57;;
58412;SDS011;44209;52.952;6.790;2023-02-28T15:32:45;10.07;;;6.37;;
58412;SDS011;44209;52.952;6.790;2023-02-28T15:35:26;7.70;;;5.60;;
58412;SDS011;44209;52.952;6.790;2023-02-28T15:37:56;8.97;;;6.33;;
58412;SDS011;44209;52.952;6.790;2023-02-28T15:40:38;6.70;;;6.00;;
58412;SDS011;44209;52.952;6.790;2023-02-28T15:43:18;7.57;;;6.30;;
58412;SDS011;44209;52.952;6.790;2023-02-28T15:48:42;7.00;;;6.30;;
58412;SDS011;44209;52.952;6.790;2023-02-28T15:53:51;7.40;;;6.47;;
58412;SDS011;44209;52.952;6.790;2023-02-28T15:56:26;7.80;;;7.00;;
58412;SDS011;44209;52.952;6.790;2023-02-28T15:58:58;7.73;;;6.47;;
58412;SDS011;44209;52.952;6.790;2023-02-28T16:01:31;10.13;;;7.13;;
58412;SDS011;44209;52.952;6.790;2023-02-28T16:04:06;8.23;;;6.40;;
58412;SDS011;44209;52.952;6.790;2023-02-28T16:06:45;8.50;;;6.93;;
58412;SDS011;44209;52.952;6.790;2023-02-28T16:09:25;8.80;;;6.50;;
58412;SDS011;44209;52.952;6.790;2023-02-28T16:11:53;7.70;;;6.60;;
58412;SDS011;44209;52.952;6.790;2023-02-28T16:14:22;8.20;;;6.57;;
58412;SDS011;44209;52.952;6.790;2023-02-28T16:16:54;7.23;;;6.53;;
58412;SDS011;44209;52.952;6.790;2023-02-28T16:19:21;7.37;;;6.40;;
58412;SDS011;44209;52.952;6.790;2023-02-28T16:21:47;9.10;;;6.27;;
58412;SDS011;44209;52.952;6.790;2023-02-28T16:24:13;7.23;;;6.27;;
58412;SDS011;44209;52.952;6.790;2023-02-28T16:26:44;8.00;;;6.07;;
58412;SDS011;44209;52.952;6.790;2023-02-28T16:31:39;9.43;;;8.17;;
58412;SDS011;44209;52.952;6.790;2023-02-28T16:34:05;56.37;;;42.40;;
58412;SDS011;44209;52.952;6.790;2023-02-28T16:36:31;12.23;;;9.07;;
58412;SDS011;44209;52.952;6.790;2023-02-28T16:38:57;17.00;;;13.40;;
58412;SDS011;44209;52.952;6.790;2023-02-28T16:41:26;24.37;;;20.63;;
58412;SDS011;44209;52.952;6.790;2023-02-28T16:43:54;8.27;;;6.90;;
58412;SDS011;44209;52.952;6.790;2023-02-28T16:46:30;9.43;;;6.45;;
58412;SDS011;44209;52.952;6.790;2023-02-28T16:48:58;7.47;;;6.73;;
58412;SDS011;44209;52.952;6.790;2023-02-28T16:51:25;7.43;;;6.40;;
58412;SDS011;44209;52.952;6.790;2023-02-28T16:53:51;9.13;;;6.43;;
58412;SDS011;44209;52.952;6.790;2023-02-28T16:56:20;7.63;;;6.83;;
58412;SDS011;44209;52.952;6.790;2023-02-28T16:58:49;9.43;;;7.65;;
58412;SDS011;44209;52.952;6.790;2023-02-28T17:01:16;8.27;;;7.47;;
58412;SDS011;44209;52.952;6.790;2023-02-28T17:03:46;7.77;;;6.77;;
58412;SDS011;44209;52.952;6.790;2023-02-28T17:06:23;7.60;;;6.63;;
58412;SDS011;44209;52.952;6.790;2023-02-28T17:08:53;7.77;;;6.70;;
58412;SDS011;44209;52.952;6.790;2023-02-28T17:11:20;7.67;;;6.53;;
58412;SDS011;44209;52.952;6.790;2023-02-28T17:13:46;7.60;;;6.10;;
58412;SDS011;44209;52.952;6.790;2023-02-28T17:16:15;7.60;;;6.10;;
58412;SDS011;44209;52.952;6.790;2023-02-28T17:18:54;9.03;;;7.10;;
58412;SDS011;44209;52.952;6.790;2023-02-28T17:21:23;7.47;;;6.47;;
58412;SDS011;44209;52.952;6.790;2023-02-28T17:23:48;7.93;;;7.17;;
58412;SDS011;44209;52.952;6.790;2023-02-28T17:26:16;7.27;;;6.27;;